createdAt,value
2023-04-16T00:02:26.000Z,10.10
2023-04-16T00:05:15.113Z,10.20
2023-04-16T00:08:02.153Z,10.30
2023-04-16T00:10:48.747Z,10.30
2023-04-16T00:13:35.512Z,10.30
2023-04-16T00:16:22.196Z,10.30
2023-04-16T00:19:09.051Z,10.20
2023-04-16T00:21:57.635Z,10.20
2023-04-16T00:24:44.034Z,10.10
2023-04-16T00:27:30.373Z,10.10
2023-04-16T00:30:16.655Z,10.20
2023-04-16T00:33:03.372Z,10.30
2023-04-16T00:35:50.192Z,10.20
2023-04-16T00:38:38.380Z,10.10
2023-04-16T00:41:26.775Z,10.10
2023-04-16T00:44:13.412Z,10.00
2023-04-16T00:47:01.201Z,10.00
2023-04-16T00:49:48.019Z,10.00
2023-04-16T00:52:35.423Z,10.00
2023-04-16T00:55:23.593Z,10.10
2023-04-16T00:58:09.966Z,10.20
2023-04-16T01:00:56.962Z,10.10
2023-04-16T01:03:46.137Z,10.20
2023-04-16T01:06:32.919Z,10.20
2023-04-16T01:09:19.711Z,10.10
2023-04-16T01:12:07.543Z,10.10
2023-04-16T01:14:54.061Z,10.00
2023-04-16T01:17:40.417Z,10.00
2023-04-16T01:20:27.194Z,10.10
2023-04-16T01:23:15.620Z,10.10
2023-04-16T01:26:03.473Z,10.10
2023-04-16T01:28:49.872Z,10.10
2023-04-16T01:31:36.732Z,10.20
2023-04-16T01:34:27.642Z,10.20
2023-04-16T01:37:14.835Z,10.20
2023-04-16T01:40:02.972Z,10.20
2023-04-16T01:42:51.059Z,10.10
2023-04-16T01:45:37.862Z,10.10
2023-04-16T01:48:24.297Z,10.00
2023-04-16T01:51:11.400Z,10.00
2023-04-16T01:53:58.333Z,10.00
2023-04-16T01:56:46.514Z,10.00
2023-04-16T01:59:33.436Z,9.90
2023-04-16T02:02:20.159Z,9.90
2023-04-16T02:05:07.133Z,9.90
2023-04-16T02:07:53.710Z,9.90
2023-04-16T02:10:40.449Z,9.90
2023-04-16T02:13:29.514Z,9.90
2023-04-16T02:16:16.454Z,9.80
2023-04-16T02:19:16.121Z,9.80
2023-04-16T02:22:02.685Z,9.80
2023-04-16T02:24:50.567Z,9.90
2023-04-16T02:27:37.334Z,9.90
2023-04-16T02:30:40.998Z,9.90
2023-04-16T02:33:28.682Z,9.80
2023-04-16T02:36:20.263Z,9.90
2023-04-16T02:39:06.890Z,9.90
2023-04-16T02:41:54.187Z,9.80
2023-04-16T02:44:40.973Z,9.90
2023-04-16T02:47:28.711Z,9.90
2023-04-16T02:50:15.994Z,9.90
2023-04-16T02:53:02.280Z,9.80
2023-04-16T02:55:52.462Z,9.80
2023-04-16T02:58:38.748Z,9.90
2023-04-16T03:01:25.319Z,9.80
2023-04-16T03:04:13.746Z,9.80
2023-04-16T03:07:00.930Z,9.80
2023-04-16T03:09:47.659Z,9.70
2023-04-16T03:12:34.254Z,9.70
2023-04-16T03:15:20.936Z,9.80
2023-04-16T03:18:07.640Z,9.70
2023-04-16T03:20:55.432Z,9.80
2023-04-16T03:23:42.128Z,9.80
2023-04-16T03:26:29.073Z,9.90
2023-04-16T03:29:15.507Z,9.90
2023-04-16T03:32:02.258Z,9.80
2023-04-16T03:34:49.287Z,9.80
2023-04-16T03:37:37.831Z,9.70
2023-04-16T03:40:24.575Z,9.80
2023-04-16T03:43:12.446Z,9.80
2023-04-16T03:45:58.928Z,9.80
2023-04-16T03:48:46.054Z,9.70
2023-04-16T03:51:32.650Z,9.70
2023-04-16T03:54:22.538Z,9.70
2023-04-16T03:57:16.483Z,9.80
2023-04-16T04:00:03.392Z,9.80
2023-04-16T04:03:01.071Z,9.90
2023-04-16T04:05:47.825Z,10.00
2023-04-16T04:08:38.414Z,9.90
2023-04-16T04:11:27.218Z,9.90
2023-04-16T04:14:15.348Z,9.90
2023-04-16T04:17:02.145Z,9.90
2023-04-16T04:20:00.418Z,9.80
2023-04-16T04:22:49.346Z,9.80
2023-04-16T04:25:37.151Z,9.80
2023-04-16T04:28:25.282Z,9.80
2023-04-16T04:31:12.011Z,9.80
2023-04-16T04:33:59.516Z,9.90
2023-04-16T04:36:46.994Z,9.80
2023-04-16T04:39:34.191Z,9.80
2023-04-16T04:42:22.648Z,9.80
2023-04-16T04:45:12.146Z,9.70
2023-04-16T04:47:59.433Z,9.70
2023-04-16T04:50:46.602Z,9.70
2023-04-16T04:53:33.844Z,9.70
2023-04-16T04:56:20.850Z,9.70
2023-04-16T04:59:08.502Z,9.70
2023-04-16T05:01:56.798Z,9.70
2023-04-16T05:04:43.725Z,9.70
2023-04-16T05:07:30.818Z,9.70
2023-04-16T05:10:17.636Z,9.80
2023-04-16T05:13:04.421Z,9.70
2023-04-16T05:15:51.834Z,9.70
2023-04-16T05:18:39.499Z,9.80
2023-04-16T05:21:26.311Z,9.70
2023-04-16T05:24:14.797Z,9.70
2023-04-16T05:27:02.090Z,9.70
2023-04-16T05:29:48.607Z,9.70
2023-04-16T05:32:35.016Z,9.70
2023-04-16T05:35:23.314Z,9.80
2023-04-16T05:38:10.314Z,9.70
2023-04-16T05:40:56.826Z,9.70
2023-04-16T05:43:43.345Z,9.70
2023-04-16T05:46:29.937Z,9.80
2023-04-16T05:49:18.683Z,9.70
2023-04-16T05:52:07.369Z,9.70
2023-04-16T05:54:54.221Z,9.80
2023-04-16T05:57:41.035Z,9.80
2023-04-16T06:00:28.230Z,9.80
2023-04-16T06:03:15.424Z,9.80
2023-04-16T06:06:02.141Z,9.80
2023-04-16T06:08:50.238Z,9.80
2023-04-16T06:11:36.814Z,9.90
2023-04-16T06:14:23.443Z,9.90
2023-04-16T06:17:10.390Z,9.90
2023-04-16T06:19:57.183Z,9.90
2023-04-16T06:22:43.774Z,10.00
2023-04-16T06:25:31.357Z,10.00
2023-04-16T06:28:17.796Z,10.00
2023-04-16T06:31:04.398Z,10.00
2023-04-16T06:33:50.946Z,10.00
2023-04-16T06:36:37.688Z,9.90
2023-04-16T06:39:24.239Z,9.90
2023-04-16T06:42:11.996Z,9.90
2023-04-16T06:44:58.572Z,9.90
2023-04-16T06:47:45.108Z,9.90
2023-04-16T06:50:32.071Z,9.90
2023-04-16T06:53:18.459Z,10.00
2023-04-16T06:56:05.590Z,10.10
2023-04-16T06:58:53.325Z,10.00
2023-04-16T07:01:39.972Z,10.10
2023-04-16T07:04:26.512Z,10.20
2023-04-16T07:07:13.408Z,10.20
2023-04-16T07:10:00.798Z,10.20
2023-04-16T07:12:47.127Z,10.30
2023-04-16T07:15:35.024Z,10.30
2023-04-16T07:18:21.507Z,10.30
2023-04-16T07:21:08.016Z,10.40
2023-04-16T07:23:54.349Z,10.40
2023-04-16T07:26:41.121Z,10.20
2023-04-16T07:29:28.013Z,10.30
2023-04-16T07:32:16.173Z,10.30
2023-04-16T07:35:03.760Z,10.20
2023-04-16T07:37:50.183Z,10.20
2023-04-16T07:40:37.560Z,10.20
2023-04-16T07:43:24.132Z,10.20
2023-04-16T07:46:11.028Z,10.20
2023-04-16T07:48:58.900Z,10.30
2023-04-16T07:51:45.601Z,10.40
2023-04-16T07:54:31.821Z,10.40
2023-04-16T07:57:18.509Z,10.40
2023-04-16T08:00:06.336Z,10.50
2023-04-16T08:03:02.377Z,10.50
2023-04-16T08:05:50.305Z,10.50
2023-04-16T08:08:36.598Z,10.50
2023-04-16T08:11:22.927Z,10.60
2023-04-16T08:14:09.718Z,10.60
2023-04-16T08:16:56.402Z,10.60
2023-04-16T08:19:43.808Z,10.60
2023-04-16T08:22:31.915Z,10.60
2023-04-16T08:25:18.828Z,10.60
2023-04-16T08:28:05.859Z,10.60
2023-04-16T08:30:52.668Z,10.60
2023-04-16T08:33:38.990Z,10.60
2023-04-16T08:36:25.599Z,10.50
2023-04-16T08:39:13.607Z,10.50
2023-04-16T08:42:02.223Z,10.60
2023-04-16T08:44:53.876Z,10.50
2023-04-16T08:47:46.864Z,10.50
2023-04-16T08:50:37.113Z,10.50
2023-04-16T08:53:33.804Z,10.50
2023-04-16T08:56:24.936Z,10.40
2023-04-16T08:59:11.555Z,10.30
2023-04-16T09:02:00.126Z,10.40
2023-04-16T09:04:49.574Z,10.50
2023-04-16T09:07:37.030Z,10.50
2023-04-16T09:10:24.164Z,10.60
2023-04-16T09:13:13.414Z,10.60
2023-04-16T09:16:01.535Z,10.60
2023-04-16T09:18:48.440Z,10.60
2023-04-16T09:21:34.971Z,10.50
2023-04-16T09:24:23.116Z,10.50
2023-04-16T09:27:10.043Z,10.50
2023-04-16T09:29:58.275Z,10.50
2023-04-16T09:32:44.746Z,10.50
2023-04-16T09:35:46.481Z,10.50
2023-04-16T09:38:48.436Z,10.50
2023-04-16T09:41:39.384Z,10.70
2023-04-16T09:44:36.760Z,10.80
2023-04-16T09:47:25.693Z,10.80
2023-04-16T09:50:18.278Z,10.80
2023-04-16T09:53:05.467Z,10.80
2023-04-16T09:55:51.981Z,10.90
2023-04-16T09:58:38.957Z,11.00
2023-04-16T10:01:25.446Z,11.00
2023-04-16T10:04:13.701Z,10.90
2023-04-16T10:07:07.587Z,10.80
2023-04-16T10:09:55.774Z,10.80
2023-04-16T10:12:43.592Z,10.80
2023-04-16T10:15:30.504Z,10.70
2023-04-16T10:18:17.577Z,10.70
2023-04-16T10:21:06.001Z,10.80
2023-04-16T10:23:53.146Z,10.80
2023-04-16T10:26:42.217Z,10.90
2023-04-16T10:29:32.292Z,10.90
2023-04-16T10:32:21.735Z,10.90
2023-04-16T10:35:09.199Z,10.90
2023-04-16T10:37:58.991Z,11.00
2023-04-16T10:40:46.452Z,11.20
2023-04-16T10:43:35.013Z,11.20
2023-04-16T10:46:23.607Z,11.20
2023-04-16T10:49:19.176Z,11.00
2023-04-16T10:52:11.640Z,11.00
2023-04-16T10:55:01.231Z,11.00
2023-04-16T10:57:50.718Z,11.00
2023-04-16T11:00:50.370Z,10.80
2023-04-16T11:03:37.205Z,10.80
2023-04-16T11:06:26.976Z,10.80
2023-04-16T11:09:47.995Z,10.70
2023-04-16T11:12:38.514Z,10.70
2023-04-16T11:15:30.860Z,10.70
2023-04-16T11:18:20.732Z,10.70
2023-04-16T11:21:09.621Z,10.60
2023-04-16T11:23:56.730Z,10.60
2023-04-16T11:26:43.219Z,10.60
2023-04-16T11:29:31.108Z,10.70
2023-04-16T11:32:22.753Z,10.70
2023-04-16T11:35:15.359Z,10.70
2023-04-16T11:38:02.256Z,10.70
2023-04-16T11:40:51.566Z,10.60
2023-04-16T11:43:38.524Z,10.70
2023-04-16T11:46:39.584Z,10.80
2023-04-16T11:49:29.910Z,10.70
2023-04-16T11:52:28.164Z,10.80
2023-04-16T11:55:15.388Z,10.70
2023-04-16T11:58:12.882Z,10.60
2023-04-16T12:01:00.344Z,10.50
2023-04-16T12:03:49.800Z,10.40
2023-04-16T12:06:36.397Z,10.40
2023-04-16T12:09:27.075Z,10.50
2023-04-16T12:12:27.487Z,10.50
2023-04-16T12:15:14.137Z,10.60
2023-04-16T12:18:08.121Z,10.60
2023-04-16T12:20:56.096Z,10.50
2023-04-16T12:23:42.738Z,10.60
2023-04-16T12:26:38.291Z,10.50
2023-04-16T12:29:27.483Z,10.50
2023-04-16T12:32:23.419Z,10.50
2023-04-16T12:35:11.272Z,10.40
2023-04-16T12:37:59.152Z,10.40
2023-04-16T12:40:45.841Z,10.40
2023-04-16T12:43:32.402Z,10.50
2023-04-16T12:46:18.889Z,10.60
2023-04-16T12:49:06.348Z,10.60
2023-04-16T12:51:52.853Z,10.50
2023-04-16T12:54:41.086Z,10.50
2023-04-16T12:57:28.765Z,10.60
2023-04-16T13:00:17.269Z,10.50
2023-04-16T13:03:04.008Z,10.50
2023-04-16T13:05:51.069Z,10.50
2023-04-16T13:08:38.192Z,10.50
2023-04-16T13:11:26.461Z,10.60
2023-04-16T13:14:13.319Z,10.50
2023-04-16T13:16:59.713Z,10.50
2023-04-16T13:19:46.070Z,10.60
2023-04-16T13:22:32.562Z,10.60
2023-04-16T13:25:19.750Z,10.60
2023-04-16T13:28:07.671Z,10.50
2023-04-16T13:30:55.395Z,10.50
2023-04-16T13:33:42.403Z,10.50
2023-04-16T13:36:30.027Z,10.60
2023-04-16T13:39:17.361Z,10.60
2023-04-16T13:42:04.046Z,10.60
2023-04-16T13:44:54.231Z,10.60
2023-04-16T13:47:42.412Z,10.70
2023-04-16T13:50:29.258Z,10.60
2023-04-16T13:53:16.003Z,10.60
2023-04-16T13:56:03.897Z,10.60
2023-04-16T13:58:50.703Z,10.70
2023-04-16T14:01:38.583Z,10.70
2023-04-16T14:04:25.140Z,10.70
2023-04-16T14:07:11.764Z,10.80
2023-04-16T14:09:58.274Z,10.80
2023-04-16T14:12:45.554Z,10.80
2023-04-16T14:15:31.953Z,10.70
2023-04-16T14:18:20.508Z,10.60
2023-04-16T14:21:06.868Z,10.70
2023-04-16T14:23:53.614Z,10.70
2023-04-16T14:26:40.020Z,10.70
2023-04-16T14:29:26.789Z,10.60
2023-04-16T14:32:13.501Z,10.70
2023-04-16T14:35:01.599Z,10.70
2023-04-16T14:37:48.431Z,10.80
2023-04-16T14:40:35.794Z,10.80
2023-04-16T14:43:22.257Z,10.80
2023-04-16T14:46:09.452Z,10.80
2023-04-16T14:48:56.531Z,10.80
2023-04-16T14:51:46.631Z,10.80
2023-04-16T14:54:33.778Z,10.90
2023-04-16T14:57:20.492Z,10.90
2023-04-16T15:00:09.696Z,10.80
2023-04-16T15:02:56.628Z,10.80
2023-04-16T15:05:43.792Z,10.70
2023-04-16T15:08:31.703Z,10.80
2023-04-16T15:11:18.171Z,10.80
2023-04-16T15:14:04.513Z,10.80
2023-04-16T15:16:51.271Z,10.80
2023-04-16T15:19:38.139Z,10.80
2023-04-16T15:22:24.866Z,10.80
2023-04-16T15:25:13.238Z,10.80
2023-04-16T15:28:02.357Z,10.80
2023-04-16T15:30:49.246Z,10.70
2023-04-16T15:33:36.155Z,10.80
2023-04-16T15:36:22.653Z,10.80
2023-04-16T15:39:09.743Z,10.80
2023-04-16T15:42:01.228Z,10.80
2023-04-16T15:44:49.111Z,10.80
2023-04-16T15:47:36.282Z,11.00
2023-04-16T15:50:23.009Z,10.90
2023-04-16T15:53:09.497Z,10.70
2023-04-16T15:55:56.259Z,10.70
2023-04-16T15:58:44.324Z,10.60
2023-04-16T16:01:31.106Z,10.50
2023-04-16T16:04:26.666Z,10.50
2023-04-16T16:07:15.244Z,10.50
2023-04-16T16:10:01.833Z,10.60
2023-04-16T16:12:48.919Z,10.60
2023-04-16T16:15:37.089Z,10.60
2023-04-16T16:18:24.209Z,10.60
2023-04-16T16:21:11.217Z,10.60
2023-04-16T16:23:58.208Z,10.70
2023-04-16T16:26:44.685Z,10.70
2023-04-16T16:29:31.244Z,10.80
2023-04-16T16:32:19.499Z,10.80
2023-04-16T16:35:06.895Z,10.80
2023-04-16T16:37:55.668Z,10.80
2023-04-16T16:40:42.428Z,10.80
2023-04-16T16:43:28.883Z,10.80
2023-04-16T16:46:15.282Z,10.80
2023-04-16T16:49:05.067Z,10.90
2023-04-16T16:51:51.671Z,10.90
2023-04-16T16:54:38.009Z,10.90
2023-04-16T16:57:24.904Z,10.80
2023-04-16T17:00:14.266Z,10.80
2023-04-16T17:03:01.376Z,10.80
2023-04-16T17:05:49.413Z,10.90
2023-04-16T17:08:36.353Z,10.80
2023-04-16T17:11:22.917Z,10.80
2023-04-16T17:14:09.762Z,10.90
2023-04-16T17:16:56.942Z,10.90
2023-04-16T17:19:44.003Z,10.90
2023-04-16T17:22:32.195Z,11.00
2023-04-16T17:25:19.254Z,11.00
2023-04-16T17:28:06.595Z,11.00
2023-04-16T17:30:56.100Z,10.90
2023-04-16T17:33:42.741Z,10.90
2023-04-16T17:36:29.172Z,10.90
2023-04-16T17:39:17.314Z,10.90
2023-04-16T17:42:03.966Z,10.90
2023-04-16T17:44:50.512Z,10.90
2023-04-16T17:47:37.417Z,11.00
2023-04-16T17:50:24.376Z,11.10
2023-04-16T17:53:11.212Z,11.10
2023-04-16T17:55:58.943Z,11.10
2023-04-16T17:58:45.641Z,11.10
2023-04-16T18:01:32.152Z,11.00
2023-04-16T18:04:19.585Z,11.00
2023-04-16T18:07:06.588Z,10.90
2023-04-16T18:09:52.933Z,10.90
2023-04-16T18:12:40.774Z,10.80
2023-04-16T18:15:27.609Z,10.80
2023-04-16T18:18:14.491Z,10.80
2023-04-16T18:21:01.448Z,10.80
2023-04-16T18:23:48.345Z,10.70
2023-04-16T18:26:36.160Z,10.80
2023-04-16T18:29:25.442Z,10.80
2023-04-16T18:32:12.680Z,10.90
2023-04-16T18:34:59.495Z,10.80
2023-04-16T18:37:46.943Z,10.80
2023-04-16T18:40:36.212Z,10.80
2023-04-16T18:43:23.778Z,10.80
2023-04-16T18:46:11.995Z,10.90
2023-04-16T18:48:59.426Z,11.00
2023-04-16T18:51:46.091Z,10.90
2023-04-16T18:54:32.580Z,10.80
2023-04-16T18:57:18.974Z,10.90
2023-04-16T19:00:10.982Z,10.90
2023-04-16T19:02:59.326Z,10.70
2023-04-16T19:05:46.488Z,10.60
2023-04-16T19:08:33.031Z,10.50
2023-04-16T19:11:19.946Z,10.60
2023-04-16T19:14:07.755Z,10.60
2023-04-16T19:16:54.450Z,10.70
2023-04-16T19:19:42.644Z,10.60
2023-04-16T19:22:29.089Z,10.60
2023-04-16T19:25:15.782Z,10.70
2023-04-16T19:28:02.525Z,10.80
2023-04-16T19:30:51.354Z,10.70
2023-04-16T19:33:38.436Z,10.70
2023-04-16T19:36:27.174Z,10.80
2023-04-16T19:39:13.651Z,10.90
2023-04-16T19:42:00.168Z,10.90
2023-04-16T19:44:47.101Z,10.60
2023-04-16T19:47:33.466Z,10.70
2023-04-16T19:50:20.960Z,10.80
2023-04-16T19:53:09.141Z,10.90
2023-04-16T19:55:56.306Z,10.80
2023-04-16T19:58:43.131Z,10.80
2023-04-16T20:01:30.750Z,10.70
2023-04-16T20:04:17.530Z,10.70
2023-04-16T20:07:04.426Z,10.80
2023-04-16T20:09:53.118Z,10.80
2023-04-16T20:12:39.873Z,10.80
2023-04-16T20:15:26.308Z,10.80
2023-04-16T20:18:13.467Z,10.90
2023-04-16T20:21:04.502Z,10.80
2023-04-16T20:23:51.044Z,10.80
2023-04-16T20:26:39.391Z,10.90
2023-04-16T20:29:25.801Z,10.70
2023-04-16T20:32:12.307Z,10.70
2023-04-16T20:34:58.555Z,10.70
2023-04-16T20:37:45.134Z,10.80
2023-04-16T20:40:31.706Z,10.60
2023-04-16T20:43:19.958Z,10.60
2023-04-16T20:46:07.025Z,10.50
2023-04-16T20:48:54.069Z,10.50
2023-04-16T20:51:40.612Z,10.60
2023-04-16T20:54:27.158Z,10.60
2023-04-16T20:57:13.989Z,10.60
2023-04-16T21:00:02.298Z,10.50
2023-04-16T21:02:49.198Z,10.60
2023-04-16T21:05:36.138Z,10.60
2023-04-16T21:08:23.066Z,10.50
2023-04-16T21:11:09.973Z,10.50
2023-04-16T21:13:56.831Z,10.60
2023-04-16T21:16:44.855Z,10.60
2023-04-16T21:19:31.330Z,10.60
2023-04-16T21:22:17.904Z,10.70
2023-04-16T21:25:04.714Z,10.60
2023-04-16T21:27:51.677Z,10.70
2023-04-16T21:30:38.282Z,10.80
2023-04-16T21:33:26.897Z,10.80
2023-04-16T21:36:13.372Z,10.80
2023-04-16T21:38:59.737Z,10.70
2023-04-16T21:41:46.437Z,10.60
2023-04-16T21:44:33.078Z,10.50
2023-04-16T21:47:19.567Z,10.60
2023-04-16T21:50:08.711Z,10.60
2023-04-16T21:52:55.197Z,10.60
2023-04-16T21:55:42.166Z,10.60
2023-04-16T21:58:28.663Z,10.70
2023-04-16T22:01:15.161Z,10.60
2023-04-16T22:04:02.098Z,10.60
2023-04-16T22:06:55.726Z,10.60
2023-04-16T22:09:42.377Z,10.60
2023-04-16T22:12:28.822Z,10.60
2023-04-16T22:15:15.540Z,10.60
2023-04-16T22:18:02.914Z,10.60
2023-04-16T22:20:50.878Z,10.60
2023-04-16T22:23:38.881Z,10.50
2023-04-16T22:26:25.173Z,10.50
2023-04-16T22:29:12.226Z,10.60
2023-04-16T22:32:00.696Z,10.60
2023-04-16T22:34:47.525Z,10.70
2023-04-16T22:37:34.525Z,10.60
2023-04-16T22:40:22.844Z,10.60
2023-04-16T22:43:09.475Z,10.60
2023-04-16T22:46:04.395Z,10.60
2023-04-16T22:48:51.798Z,10.60
2023-04-16T22:51:39.512Z,10.70
2023-04-16T22:54:29.218Z,10.70
2023-04-16T22:57:20.924Z,10.80
2023-04-16T23:00:11.231Z,10.70
2023-04-16T23:02:58.046Z,10.70
2023-04-16T23:05:44.823Z,10.60
2023-04-16T23:08:31.734Z,10.50
2023-04-16T23:11:18.297Z,10.60
2023-04-16T23:14:05.999Z,10.50
2023-04-16T23:16:52.249Z,10.50
2023-04-16T23:19:38.747Z,10.60
2023-04-16T23:22:25.285Z,10.60
2023-04-16T23:25:12.101Z,10.60
2023-04-16T23:27:58.623Z,10.60
2023-04-16T23:30:46.298Z,10.60
2023-04-16T23:33:32.688Z,10.50
2023-04-16T23:36:19.094Z,10.60
2023-04-16T23:39:05.411Z,10.60
2023-04-16T23:41:51.973Z,10.60
2023-04-16T23:44:38.474Z,10.60
2023-04-16T23:47:26.311Z,10.50
2023-04-16T23:50:13.326Z,10.50
2023-04-16T23:53:00.214Z,10.60
2023-04-16T23:55:46.962Z,10.60
2023-04-16T23:58:33.317Z,10.50
